sensor_id;sensor_type;location;lat;lon;timestamp;pressure;altitude;pressure_sealevel;temperature;humidity
3748;BME280;1889;50.058;8.688;2022-08-01T00:00:11;100170.55;;;25.02;50.07
3748;BME280;1889;50.058;8.688;2022-08-01T00:02:41;100167.74;;;25.04;50.07
3748;BME280;1889;50.058;8.688;2022-08-01T00:05:10;100167.48;;;25.07;49.95
3748;BME280;1889;50.058;8.688;2022-08-01T00:07:40;100174.22;;;25.07;49.99
3748;BME280;1889;50.058;8.688;2022-08-01T00:10:12;100168.03;;;24.88;50.54
3748;BME280;1889;50.058;8.688;2022-08-01T00:12:42;100168.19;;;24.74;51.02
3748;BME280;1889;50.058;8.688;2022-08-01T00:15:14;100164.53;;;24.75;50.94
3748;BME280;1889;50.058;8.688;2022-08-01T00:17:44;100165.66;;;24.78;50.82
3748;BME280;1889;50.058;8.688;2022-08-01T00:20:14;100162.20;;;24.70;51.15
3748;BME280;1889;50.058;8.688;2022-08-01T00:22:43;100164.12;;;24.63;51.39
3748;BME280;1889;50.058;8.688;2022-08-01T00:25:12;100169.80;;;24.77;50.93
3748;BME280;1889;50.058;8.688;2022-08-01T00:27:41;100170.51;;;24.73;51.02
3748;BME280;1889;50.058;8.688;2022-08-01T00:30:10;100169.43;;;24.76;51.04
3748;BME280;1889;50.058;8.688;2022-08-01T00:32:39;100176.43;;;24.78;50.91
3748;BME280;1889;50.058;8.688;2022-08-01T00:35:08;100177.78;;;24.84;50.77
3748;BME280;1889;50.058;8.688;2022-08-01T00:37:37;100174.32;;;24.94;50.40
3748;BME280;1889;50.058;8.688;2022-08-01T00:40:07;100170.77;;;24.99;50.25
3748;BME280;1889;50.058;8.688;2022-08-01T00:42:36;100171.41;;;25.03;50.09
3748;BME280;1889;50.058;8.688;2022-08-01T00:45:06;100170.77;;;24.94;50.42
3748;BME280;1889;50.058;8.688;2022-08-01T00:47:35;100167.47;;;24.96;50.38
3748;BME280;1889;50.058;8.688;2022-08-01T00:50:05;100171.15;;;25.00;50.15
3748;BME280;1889;50.058;8.688;2022-08-01T00:52:34;100167.48;;;25.07;49.97
3748;BME280;1889;50.058;8.688;2022-08-01T00:55:04;100166.03;;;25.08;49.89
3748;BME280;1889;50.058;8.688;2022-08-01T00:57:34;100173.73;;;25.02;50.09
3748;BME280;1889;50.058;8.688;2022-08-01T01:00:04;100168.19;;;24.98;50.12
3748;BME280;1889;50.058;8.688;2022-08-01T01:02:33;100172.61;;;24.99;50.05
3748;BME280;1889;50.058;8.688;2022-08-01T01:05:04;100175.84;;;24.86;50.55
3748;BME280;1889;50.058;8.688;2022-08-01T01:07:38;100179.28;;;24.88;50.42
3748;BME280;1889;50.058;8.688;2022-08-01T01:10:22;100183.81;;;24.87;50.46
3748;BME280;1889;50.058;8.688;2022-08-01T01:12:55;100183.81;;;24.87;50.59
3748;BME280;1889;50.058;8.688;2022-08-01T01:15:37;100179.80;;;24.63;51.29
3748;BME280;1889;50.058;8.688;2022-08-01T01:20:41;100176.96;;;24.41;51.91
3748;BME280;1889;50.058;8.688;2022-08-01T01:23:20;100184.42;;;24.38;52.10
3748;BME280;1889;50.058;8.688;2022-08-01T01:25:57;100187.22;;;24.36;52.05
3748;BME280;1889;50.058;8.688;2022-08-01T01:28:49;100191.84;;;24.34;52.29
3748;BME280;1889;50.058;8.688;2022-08-01T01:31:12;100188.34;;;24.21;52.68
3748;BME280;1889;50.058;8.688;2022-08-01T01:33:43;100188.64;;;24.29;52.30
3748;BME280;1889;50.058;8.688;2022-08-01T01:36:13;100188.83;;;24.39;51.92
3748;BME280;1889;50.058;8.688;2022-08-01T01:38:45;100189.16;;;24.34;52.27
3748;BME280;1889;50.058;8.688;2022-08-01T01:41:17;100192.22;;;24.35;52.07
3748;BME280;1889;50.058;8.688;2022-08-01T01:43:47;100191.32;;;24.16;52.88
3748;BME280;1889;50.058;8.688;2022-08-01T01:46:21;100190.84;;;24.17;52.90
3748;BME280;1889;50.058;8.688;2022-08-01T01:48:50;100190.45;;;24.23;52.60
3748;BME280;1889;50.058;8.688;2022-08-01T01:51:22;100199.70;;;24.06;53.37
3748;BME280;1889;50.058;8.688;2022-08-01T01:53:54;100195.81;;;24.10;53.12
3748;BME280;1889;50.058;8.688;2022-08-01T01:56:24;100203.74;;;24.06;53.46
3748;BME280;1889;50.058;8.688;2022-08-01T01:58:59;100199.47;;;23.91;54.00
3748;BME280;1889;50.058;8.688;2022-08-01T02:01:29;100208.40;;;23.91;54.06
3748;BME280;1889;50.058;8.688;2022-08-01T02:04:00;100202.64;;;23.78;54.49
3748;BME280;1889;50.058;8.688;2022-08-01T02:06:32;100200.75;;;23.85;54.10
3748;BME280;1889;50.058;8.688;2022-08-01T02:09:02;100205.22;;;23.79;54.43
3748;BME280;1889;50.058;8.688;2022-08-01T02:11:31;100206.56;;;23.79;54.54
3748;BME280;1889;50.058;8.688;2022-08-01T02:14:02;100213.33;;;23.85;54.22
3748;BME280;1889;50.058;8.688;2022-08-01T02:16:35;100215.11;;;23.79;54.59
3748;BME280;1889;50.058;8.688;2022-08-01T02:19:05;100216.34;;;23.68;55.12
3748;BME280;1889;50.058;8.688;2022-08-01T02:21:39;100220.23;;;23.64;55.49
3748;BME280;1889;50.058;8.688;2022-08-01T02:24:19;100219.43;;;23.56;55.82
3748;BME280;1889;50.058;8.688;2022-08-01T02:26:49;100215.23;;;23.45;56.37
3748;BME280;1889;50.058;8.688;2022-08-01T02:29:35;100208.38;;;23.41;56.54
3748;BME280;1889;50.058;8.688;2022-08-01T02:32:05;100215.62;;;23.46;56.39
3748;BME280;1889;50.058;8.688;2022-08-01T02:34:35;100213.47;;;23.58;55.84
3748;BME280;1889;50.058;8.688;2022-08-01T02:37:04;100215.59;;;23.53;56.12
3748;BME280;1889;50.058;8.688;2022-08-01T02:39:35;100213.99;;;23.63;55.86
3748;BME280;1889;50.058;8.688;2022-08-01T02:42:06;100220.33;;;23.62;55.84
3748;BME280;1889;50.058;8.688;2022-08-01T02:44:39;100210.00;;;23.69;55.58
3748;BME280;1889;50.058;8.688;2022-08-01T02:47:09;100214.87;;;23.51;56.42
3748;BME280;1889;50.058;8.688;2022-08-01T02:49:42;100210.72;;;23.45;56.66
3748;BME280;1889;50.058;8.688;2022-08-01T02:52:15;100213.72;;;23.28;57.51
3748;BME280;1889;50.058;8.688;2022-08-01T02:54:44;100213.72;;;23.28;57.51
3748;BME280;1889;50.058;8.688;2022-08-01T02:57:15;100209.30;;;23.27;57.28
3748;BME280;1889;50.058;8.688;2022-08-01T02:59:46;100210.64;;;23.14;57.80
3748;BME280;1889;50.058;8.688;2022-08-01T03:02:17;100210.73;;;23.13;57.81
3748;BME280;1889;50.058;8.688;2022-08-01T03:04:48;100220.62;;;23.12;57.92
3748;BME280;1889;50.058;8.688;2022-08-01T03:07:20;100220.28;;;23.04;58.20
3748;BME280;1889;50.058;8.688;2022-08-01T03:09:50;100217.58;;;22.92;58.75
3748;BME280;1889;50.058;8.688;2022-08-01T03:12:22;100217.86;;;22.94;58.64
3748;BME280;1889;50.058;8.688;2022-08-01T03:14:54;100228.91;;;23.09;58.02
3748;BME280;1889;50.058;8.688;2022-08-01T03:17:25;100219.42;;;23.04;58.34
3748;BME280;1889;50.058;8.688;2022-08-01T03:19:57;100222.39;;;23.06;58.21
3748;BME280;1889;50.058;8.688;2022-08-01T03:22:28;100216.82;;;23.09;58.07
3748;BME280;1889;50.058;8.688;2022-08-01T03:24:59;100223.92;;;23.03;58.38
3748;BME280;1889;50.058;8.688;2022-08-01T03:27:29;100216.95;;;23.01;58.43
3748;BME280;1889;50.058;8.688;2022-08-01T03:30:01;100225.36;;;23.09;58.17
3748;BME280;1889;50.058;8.688;2022-08-01T03:32:31;100227.14;;;23.15;57.91
3748;BME280;1889;50.058;8.688;2022-08-01T03:35:00;100226.52;;;23.25;57.53
3748;BME280;1889;50.058;8.688;2022-08-01T03:37:38;100220.91;;;23.15;58.01
3748;BME280;1889;50.058;8.688;2022-08-01T03:40:58;100223.53;;;23.09;58.28
3748;BME280;1889;50.058;8.688;2022-08-01T03:42:44;100228.62;;;23.07;58.42
3748;BME280;1889;50.058;8.688;2022-08-01T03:45:26;100227.56;;;23.09;58.22
3748;BME280;1889;50.058;8.688;2022-08-01T03:48:05;100224.61;;;23.19;57.82
3748;BME280;1889;50.058;8.688;2022-08-01T03:50:29;100229.77;;;23.03;58.51
3748;BME280;1889;50.058;8.688;2022-08-01T03:53:02;100225.75;;;23.03;58.47
3748;BME280;1889;50.058;8.688;2022-08-01T03:55:33;100227.56;;;23.09;58.35
3748;BME280;1889;50.058;8.688;2022-08-01T03:58:06;100229.91;;;23.01;58.85
3748;BME280;1889;50.058;8.688;2022-08-01T04:00:38;100229.23;;;22.98;58.95
3748;BME280;1889;50.058;8.688;2022-08-01T04:03:10;100230.73;;;23.09;58.55
3748;BME280;1889;50.058;8.688;2022-08-01T04:05:43;100229.10;;;23.06;58.78
3748;BME280;1889;50.058;8.688;2022-08-01T04:08:12;100226.75;;;23.14;58.44
3748;BME280;1889;50.058;8.688;2022-08-01T04:10:41;100225.36;;;23.09;58.79
3748;BME280;1889;50.058;8.688;2022-08-01T04:13:10;100225.27;;;23.23;58.18
3748;BME280;1889;50.058;8.688;2022-08-01T04:15:40;100224.94;;;23.28;58.09
3748;BME280;1889;50.058;8.688;2022-08-01T04:18:09;100224.84;;;23.29;58.11
3748;BME280;1889;50.058;8.688;2022-08-01T04:20:38;100228.82;;;23.36;57.72
3748;BME280;1889;50.058;8.688;2022-08-01T04:23:07;100230.78;;;23.47;57.35
3748;BME280;1889;50.058;8.688;2022-08-01T04:25:40;100225.50;;;23.45;57.32
3748;BME280;1889;50.058;8.688;2022-08-01T04:28:12;100232.42;;;23.30;58.02
3748;BME280;1889;50.058;8.688;2022-08-01T04:30:45;100231.41;;;23.38;57.61
3748;BME280;1889;50.058;8.688;2022-08-01T04:33:15;100238.08;;;23.45;57.27
3748;BME280;1889;50.058;8.688;2022-08-01T04:35:46;100234.89;;;23.52;57.07
3748;BME280;1889;50.058;8.688;2022-08-01T04:38:19;100244.20;;;23.54;57.04
3748;BME280;1889;50.058;8.688;2022-08-01T04:40:49;100246.45;;;23.60;56.92
3748;BME280;1889;50.058;8.688;2022-08-01T04:43:19;100251.63;;;23.63;56.89
3748;BME280;1889;50.058;8.688;2022-08-01T04:45:49;100253.02;;;23.56;57.18
3748;BME280;1889;50.058;8.688;2022-08-01T04:48:20;100252.48;;;23.64;56.88
3748;BME280;1889;50.058;8.688;2022-08-01T04:50:50;100256.95;;;23.70;56.77
3748;BME280;1889;50.058;8.688;2022-08-01T04:53:20;100253.81;;;23.76;56.60
3748;BME280;1889;50.058;8.688;2022-08-01T04:55:51;100259.20;;;23.64;57.15
3748;BME280;1889;50.058;8.688;2022-08-01T04:58:21;100254.31;;;23.63;57.07
3748;BME280;1889;50.058;8.688;2022-08-01T05:00:51;100258.39;;;23.69;56.92
3748;BME280;1889;50.058;8.688;2022-08-01T05:03:22;100258.20;;;23.59;57.33
3748;BME280;1889;50.058;8.688;2022-08-01T05:05:51;100260.39;;;23.72;56.80
3748;BME280;1889;50.058;8.688;2022-08-01T05:08:20;100254.84;;;23.68;56.90
3748;BME280;1889;50.058;8.688;2022-08-01T05:10:49;100260.59;;;23.69;56.82
3748;BME280;1889;50.058;8.688;2022-08-01T05:13:18;100261.54;;;23.75;56.65
3748;BME280;1889;50.058;8.688;2022-08-01T05:15:47;100263.55;;;23.84;56.47
3748;BME280;1889;50.058;8.688;2022-08-01T05:18:16;100265.27;;;23.85;56.45
3748;BME280;1889;50.058;8.688;2022-08-01T05:20:45;100262.38;;;23.88;56.34
3748;BME280;1889;50.058;8.688;2022-08-01T05:23:15;100263.94;;;23.85;56.43
3748;BME280;1889;50.058;8.688;2022-08-01T05:25:45;100264.05;;;23.71;56.92
3748;BME280;1889;50.058;8.688;2022-08-01T05:28:16;100263.55;;;23.39;57.89
3748;BME280;1889;50.058;8.688;2022-08-01T05:30:45;100270.03;;;23.30;58.21
3748;BME280;1889;50.058;8.688;2022-08-01T05:33:14;100275.25;;;23.26;58.30
3748;BME280;1889;50.058;8.688;2022-08-01T05:35:43;100279.76;;;23.25;58.37
3748;BME280;1889;50.058;8.688;2022-08-01T05:38:12;100285.61;;;23.25;58.38
3748;BME280;1889;50.058;8.688;2022-08-01T05:40:41;100285.57;;;23.32;58.11
3748;BME280;1889;50.058;8.688;2022-08-01T05:43:10;100297.29;;;23.43;57.65
3748;BME280;1889;50.058;8.688;2022-08-01T05:45:39;100288.93;;;23.28;58.18
3748;BME280;1889;50.058;8.688;2022-08-01T05:48:09;100284.77;;;23.37;57.95
3748;BME280;1889;50.058;8.688;2022-08-01T05:50:38;100287.20;;;23.47;57.64
3748;BME280;1889;50.058;8.688;2022-08-01T05:53:07;100282.16;;;23.49;57.64
3748;BME280;1889;50.058;8.688;2022-08-01T05:55:36;100284.22;;;23.51;57.54
3748;BME280;1889;50.058;8.688;2022-08-01T05:58:05;100286.84;;;23.66;57.16
3748;BME280;1889;50.058;8.688;2022-08-01T06:00:34;100279.31;;;23.71;56.99
3748;BME280;1889;50.058;8.688;2022-08-01T06:03:04;100280.51;;;23.67;57.21
3748;BME280;1889;50.058;8.688;2022-08-01T06:05:33;100290.11;;;23.76;57.00
3748;BME280;1889;50.058;8.688;2022-08-01T06:08:02;100294.27;;;23.87;56.73
3748;BME280;1889;50.058;8.688;2022-08-01T06:10:32;100295.36;;;23.98;56.51
3748;BME280;1889;50.058;8.688;2022-08-01T06:13:01;100286.70;;;24.00;56.47
3748;BME280;1889;50.058;8.688;2022-08-01T06:15:31;100289.81;;;24.06;56.36
3748;BME280;1889;50.058;8.688;2022-08-01T06:18:00;100284.05;;;24.05;56.39
3748;BME280;1889;50.058;8.688;2022-08-01T06:20:29;100294.95;;;24.09;56.33
3748;BME280;1889;50.058;8.688;2022-08-01T06:22:58;100295.61;;;23.87;56.97
3748;BME280;1889;50.058;8.688;2022-08-01T06:25:27;100298.46;;;24.04;56.42
3748;BME280;1889;50.058;8.688;2022-08-01T06:27:57;100302.54;;;24.10;56.19
3748;BME280;1889;50.058;8.688;2022-08-01T06:30:26;100306.85;;;23.87;56.75
3748;BME280;1889;50.058;8.688;2022-08-01T06:32:55;100304.06;;;23.88;56.92
3748;BME280;1889;50.058;8.688;2022-08-01T06:35:27;100307.89;;;23.91;56.91
3748;BME280;1889;50.058;8.688;2022-08-01T06:37:58;100312.55;;;23.95;56.91
3748;BME280;1889;50.058;8.688;2022-08-01T06:40:27;100311.48;;;23.98;56.74
3748;BME280;1889;50.058;8.688;2022-08-01T06:42:56;100310.29;;;24.02;56.65
3748;BME280;1889;50.058;8.688;2022-08-01T06:45:25;100308.73;;;23.79;57.31
3748;BME280;1889;50.058;8.688;2022-08-01T06:47:54;100307.16;;;23.57;58.05
3748;BME280;1889;50.058;8.688;2022-08-01T06:50:23;100313.62;;;23.67;57.82
3748;BME280;1889;50.058;8.688;2022-08-01T06:52:52;100306.91;;;23.80;57.50
3748;BME280;1889;50.058;8.688;2022-08-01T06:55:22;100313.86;;;23.89;57.24
3748;BME280;1889;50.058;8.688;2022-08-01T06:57:51;100315.78;;;23.87;57.30
3748;BME280;1889;50.058;8.688;2022-08-01T07:00:22;100328.16;;;24.03;56.93
3748;BME280;1889;50.058;8.688;2022-08-01T07:02:53;100324.98;;;24.03;57.10
3748;BME280;1889;50.058;8.688;2022-08-01T07:05:23;100322.86;;;23.76;57.75
3748;BME280;1889;50.058;8.688;2022-08-01T07:07:52;100325.34;;;23.66;58.32
3748;BME280;1889;50.058;8.688;2022-08-01T07:10:21;100318.42;;;23.82;57.90
3748;BME280;1889;50.058;8.688;2022-08-01T07:12:51;100317.81;;;23.71;58.29
3748;BME280;1889;50.058;8.688;2022-08-01T07:15:20;100310.27;;;23.76;58.38
3748;BME280;1889;50.058;8.688;2022-08-01T07:17:50;100307.56;;;23.83;58.20
3748;BME280;1889;50.058;8.688;2022-08-01T07:20:19;100310.66;;;23.77;58.31
3748;BME280;1889;50.058;8.688;2022-08-01T07:22:48;100313.95;;;23.88;58.05
3748;BME280;1889;50.058;8.688;2022-08-01T07:25:17;100313.52;;;23.94;57.77
3748;BME280;1889;50.058;8.688;2022-08-01T07:27:46;100314.34;;;23.89;57.72
3748;BME280;1889;50.058;8.688;2022-08-01T07:30:15;100318.97;;;24.25;56.86
3748;BME280;1889;50.058;8.688;2022-08-01T07:32:44;100312.31;;;24.49;56.32
3748;BME280;1889;50.058;8.688;2022-08-01T07:35:14;100310.27;;;24.52;56.30
3748;BME280;1889;50.058;8.688;2022-08-01T07:37:43;100309.93;;;24.39;56.46
3748;BME280;1889;50.058;8.688;2022-08-01T07:40:12;100309.88;;;24.64;55.95
3748;BME280;1889;50.058;8.688;2022-08-01T07:42:41;100305.03;;;24.75;55.54
3748;BME280;1889;50.058;8.688;2022-08-01T07:45:11;100296.72;;;24.72;55.51
3748;BME280;1889;50.058;8.688;2022-08-01T07:47:41;100305.16;;;24.55;56.00
3748;BME280;1889;50.058;8.688;2022-08-01T07:50:10;100296.39;;;24.82;55.55
3748;BME280;1889;50.058;8.688;2022-08-01T07:52:40;100299.27;;;24.37;55.94
3748;BME280;1889;50.058;8.688;2022-08-01T07:55:10;100300.83;;;24.34;56.60
3748;BME280;1889;50.058;8.688;2022-08-01T07:57:39;100299.61;;;24.51;55.68
3748;BME280;1889;50.058;8.688;2022-08-01T08:00:09;100288.37;;;24.69;55.18
3748;BME280;1889;50.058;8.688;2022-08-01T08:02:38;100294.51;;;24.71;55.18
3748;BME280;1889;50.058;8.688;2022-08-01T08:05:07;100285.65;;;24.64;55.29
3748;BME280;1889;50.058;8.688;2022-08-01T08:07:36;100298.53;;;24.53;55.40
3748;BME280;1889;50.058;8.688;2022-08-01T08:10:06;100293.41;;;24.12;56.36
3748;BME280;1889;50.058;8.688;2022-08-01T08:12:35;100294.89;;;24.23;56.53
3748;BME280;1889;50.058;8.688;2022-08-01T08:15:04;100294.41;;;24.24;56.42
3748;BME280;1889;50.058;8.688;2022-08-01T08:17:35;100293.81;;;24.44;56.04
3748;BME280;1889;50.058;8.688;2022-08-01T08:20:06;100287.34;;;24.83;55.07
3748;BME280;1889;50.058;8.688;2022-08-01T08:22:35;100296.30;;;25.02;54.44
3748;BME280;1889;50.058;8.688;2022-08-01T08:25:05;100297.86;;;24.99;54.27
3748;BME280;1889;50.058;8.688;2022-08-01T08:27:35;100305.33;;;25.19;53.76
3748;BME280;1889;50.058;8.688;2022-08-01T08:30:05;100305.38;;;24.88;54.38
3748;BME280;1889;50.058;8.688;2022-08-01T08:32:39;100300.42;;;24.95;54.46
3748;BME280;1889;50.058;8.688;2022-08-01T08:35:08;100300.12;;;25.05;54.05
3748;BME280;1889;50.058;8.688;2022-08-01T08:37:38;100301.70;;;25.07;54.32
3748;BME280;1889;50.058;8.688;2022-08-01T08:40:07;100303.99;;;25.25;53.99
3748;BME280;1889;50.058;8.688;2022-08-01T08:42:39;100302.02;;;24.97;54.18
3748;BME280;1889;50.058;8.688;2022-08-01T08:45:09;100310.45;;;24.93;54.27
3748;BME280;1889;50.058;8.688;2022-08-01T08:47:39;100304.20;;;25.16;53.79
3748;BME280;1889;50.058;8.688;2022-08-01T08:50:10;100310.16;;;25.38;53.29
3748;BME280;1889;50.058;8.688;2022-08-01T08:52:39;100316.96;;;25.55;52.80
3748;BME280;1889;50.058;8.688;2022-08-01T08:55:09;100318.09;;;25.58;52.60
3748;BME280;1889;50.058;8.688;2022-08-01T08:57:43;100311.50;;;25.38;53.08
3748;BME280;1889;50.058;8.688;2022-08-01T09:00:14;100311.75;;;25.59;52.76
3748;BME280;1889;50.058;8.688;2022-08-01T09:02:45;100310.78;;;25.65;52.32
3748;BME280;1889;50.058;8.688;2022-08-01T09:05:15;100323.14;;;25.33;52.52
3748;BME280;1889;50.058;8.688;2022-08-01T09:07:45;100306.10;;;25.03;53.02
3748;BME280;1889;50.058;8.688;2022-08-01T09:10:14;100311.40;;;25.10;52.68
3748;BME280;1889;50.058;8.688;2022-08-01T09:13:08;100312.63;;;25.41;52.15
3748;BME280;1889;50.058;8.688;2022-08-01T09:15:15;100310.90;;;25.34;52.66
3748;BME280;1889;50.058;8.688;2022-08-01T09:17:44;100312.16;;;25.47;52.42
3748;BME280;1889;50.058;8.688;2022-08-01T09:20:23;100314.30;;;25.31;52.35
3748;BME280;1889;50.058;8.688;2022-08-01T09:22:52;100314.94;;;25.64;52.01
3748;BME280;1889;50.058;8.688;2022-08-01T09:25:21;100312.06;;;25.89;51.63
3748;BME280;1889;50.058;8.688;2022-08-01T09:28:01;100312.25;;;25.64;50.96
3748;BME280;1889;50.058;8.688;2022-08-01T09:30:23;100307.04;;;25.96;50.60
3748;BME280;1889;50.058;8.688;2022-08-01T09:33:02;100305.23;;;26.02;50.39
3748;BME280;1889;50.058;8.688;2022-08-01T09:35:31;100312.44;;;25.90;50.52
3748;BME280;1889;50.058;8.688;2022-08-01T09:38:21;100315.70;;;25.71;50.41
3748;BME280;1889;50.058;8.688;2022-08-01T09:40:59;100312.77;;;25.74;50.38
3748;BME280;1889;50.058;8.688;2022-08-01T09:43:29;100301.50;;;25.75;50.55
3748;BME280;1889;50.058;8.688;2022-08-01T09:45:59;100297.11;;;25.91;50.32
3748;BME280;1889;50.058;8.688;2022-08-01T09:48:29;100296.27;;;26.07;50.11
3748;BME280;1889;50.058;8.688;2022-08-01T09:51:00;100304.61;;;26.20;49.88
3748;BME280;1889;50.058;8.688;2022-08-01T09:53:40;100299.13;;;26.39;49.26
3748;BME280;1889;50.058;8.688;2022-08-01T09:56:11;100295.69;;;26.37;48.14
3748;BME280;1889;50.058;8.688;2022-08-01T09:58:59;100302.17;;;26.62;48.51
3748;BME280;1889;50.058;8.688;2022-08-01T10:01:43;100299.13;;;26.39;48.85
3748;BME280;1889;50.058;8.688;2022-08-01T10:04:17;100301.68;;;26.63;48.74
3748;BME280;1889;50.058;8.688;2022-08-01T10:06:49;100300.94;;;26.72;48.58
3748;BME280;1889;50.058;8.688;2022-08-01T10:09:31;100299.23;;;26.65;48.04
3748;BME280;1889;50.058;8.688;2022-08-01T10:12:02;100300.49;;;26.33;48.14
3748;BME280;1889;50.058;8.688;2022-08-01T10:14:51;100308.91;;;26.23;48.45
3748;BME280;1889;50.058;8.688;2022-08-01T10:17:24;100303.66;;;26.44;48.01
3748;BME280;1889;50.058;8.688;2022-08-01T10:19:54;100298.00;;;26.25;47.74
3748;BME280;1889;50.058;8.688;2022-08-01T10:22:24;100302.06;;;26.47;47.62
3748;BME280;1889;50.058;8.688;2022-08-01T10:24:56;100297.14;;;26.52;47.69
3748;BME280;1889;50.058;8.688;2022-08-01T10:27:28;100299.50;;;26.51;47.61
3748;BME280;1889;50.058;8.688;2022-08-01T10:29:59;100296.56;;;26.32;47.88
3748;BME280;1889;50.058;8.688;2022-08-01T10:32:31;100284.78;;;26.33;47.90
3748;BME280;1889;50.058;8.688;2022-08-01T10:35:02;100295.93;;;26.28;47.81
3748;BME280;1889;50.058;8.688;2022-08-01T10:37:34;100295.28;;;26.13;47.97
3748;BME280;1889;50.058;8.688;2022-08-01T10:40:04;100302.28;;;26.21;47.68
3748;BME280;1889;50.058;8.688;2022-08-01T10:42:33;100293.47;;;26.25;47.60
3748;BME280;1889;50.058;8.688;2022-08-01T10:45:04;100292.11;;;26.25;47.61
3748;BME280;1889;50.058;8.688;2022-08-01T10:47:38;100292.70;;;25.84;48.65
3748;BME280;1889;50.058;8.688;2022-08-01T10:50:17;100288.88;;;25.75;48.95
3748;BME280;1889;50.058;8.688;2022-08-01T10:53:11;100288.30;;;25.94;48.64
3748;BME280;1889;50.058;8.688;2022-08-01T10:58:32;100282.33;;;26.41;47.99
3748;BME280;1889;50.058;8.688;2022-08-01T11:01:23;100286.09;;;26.60;47.44
3748;BME280;1889;50.058;8.688;2022-08-01T11:03:58;100280.45;;;26.64;47.43
3748;BME280;1889;50.058;8.688;2022-08-01T11:12:08;100273.67;;;26.91;46.88
3748;BME280;1889;50.058;8.688;2022-08-01T11:17:40;100270.87;;;27.14;46.71
3748;BME280;1889;50.058;8.688;2022-08-01T11:20:27;100264.75;;;27.32;47.17
3748;BME280;1889;50.058;8.688;2022-08-01T11:28:23;100259.38;;;27.74;45.62
3748;BME280;1889;50.058;8.688;2022-08-01T11:36:17;100255.75;;;28.15;44.00
3748;BME280;1889;50.058;8.688;2022-08-01T11:39:10;100246.07;;;28.13;43.82
3748;BME280;1889;50.058;8.688;2022-08-01T11:41:25;100242.45;;;28.02;44.03
3748;BME280;1889;50.058;8.688;2022-08-01T11:44:05;100240.19;;;28.07;44.05
3748;BME280;1889;50.058;8.688;2022-08-01T11:47:08;100230.08;;;28.09;44.03
3748;BME280;1889;50.058;8.688;2022-08-01T11:49:47;100238.20;;;28.09;43.97
3748;BME280;1889;50.058;8.688;2022-08-01T11:52:26;100235.09;;;27.99;44.13
3748;BME280;1889;50.058;8.688;2022-08-01T11:55:07;100231.39;;;28.00;44.24
3748;BME280;1889;50.058;8.688;2022-08-01T11:57:36;100230.81;;;28.12;44.18
3748;BME280;1889;50.058;8.688;2022-08-01T12:00:11;100234.90;;;28.06;43.86
3748;BME280;1889;50.058;8.688;2022-08-01T12:02:41;100227.70;;;28.01;44.07
3748;BME280;1889;50.058;8.688;2022-08-01T12:05:12;100224.36;;;28.03;43.67
3748;BME280;1889;50.058;8.688;2022-08-01T12:07:43;100231.94;;;28.09;43.82
3748;BME280;1889;50.058;8.688;2022-08-01T12:10:16;100218.89;;;28.08;43.39
3748;BME280;1889;50.058;8.688;2022-08-01T12:12:52;100215.80;;;28.13;43.47
3748;BME280;1889;50.058;8.688;2022-08-01T12:15:23;100218.88;;;28.29;43.51
3748;BME280;1889;50.058;8.688;2022-08-01T12:17:57;100205.23;;;28.50;43.14
3748;BME280;1889;50.058;8.688;2022-08-01T12:20:30;100205.59;;;28.76;42.82
3748;BME280;1889;50.058;8.688;2022-08-01T12:23:00;100202.01;;;28.95;42.34
3748;BME280;1889;50.058;8.688;2022-08-01T12:25:29;100205.53;;;29.10;40.79
3748;BME280;1889;50.058;8.688;2022-08-01T12:28:04;100200.92;;;29.30;40.29
3748;BME280;1889;50.058;8.688;2022-08-01T12:30:35;100196.00;;;29.49;38.89
3748;BME280;1889;50.058;8.688;2022-08-01T12:33:07;100204.33;;;29.51;38.59
3748;BME280;1889;50.058;8.688;2022-08-01T12:35:37;100200.58;;;29.48;37.96
3748;BME280;1889;50.058;8.688;2022-08-01T12:38:22;100194.14;;;29.30;37.94
3748;BME280;1889;50.058;8.688;2022-08-01T12:40:49;100186.77;;;29.55;38.64
3748;BME280;1889;50.058;8.688;2022-08-01T12:43:20;100191.55;;;29.81;38.36
3748;BME280;1889;50.058;8.688;2022-08-01T12:45:50;100196.45;;;29.91;38.26
3748;BME280;1889;50.058;8.688;2022-08-01T12:48:20;100192.06;;;29.57;37.38
3748;BME280;1889;50.058;8.688;2022-08-01T12:50:50;100197.80;;;28.87;38.19
3748;BME280;1889;50.058;8.688;2022-08-01T12:53:21;100192.66;;;29.12;38.34
3748;BME280;1889;50.058;8.688;2022-08-01T12:55:54;100198.94;;;29.22;38.54
3748;BME280;1889;50.058;8.688;2022-08-01T12:58:22;100194.51;;;29.21;38.77
3748;BME280;1889;50.058;8.688;2022-08-01T13:01:02;100198.30;;;29.15;38.46
3748;BME280;1889;50.058;8.688;2022-08-01T13:03:23;100198.10;;;28.83;38.04
3748;BME280;1889;50.058;8.688;2022-08-01T13:05:54;100188.77;;;28.57;38.47
3748;BME280;1889;50.058;8.688;2022-08-01T13:08:32;100184.33;;;28.81;38.51
3748;BME280;1889;50.058;8.688;2022-08-01T13:11:06;100192.81;;;28.47;38.81
3748;BME280;1889;50.058;8.688;2022-08-01T13:13:42;100187.44;;;28.32;38.95
3748;BME280;1889;50.058;8.688;2022-08-01T13:16:11;100181.52;;;28.33;39.34
3748;BME280;1889;50.058;8.688;2022-08-01T13:18:40;100186.37;;;28.29;39.47
3748;BME280;1889;50.058;8.688;2022-08-01T13:21:18;100185.77;;;28.51;39.17
3748;BME280;1889;50.058;8.688;2022-08-01T13:24:07;100192.52;;;28.41;39.23
3748;BME280;1889;50.058;8.688;2022-08-01T13:26:42;100191.95;;;28.47;39.36
3748;BME280;1889;50.058;8.688;2022-08-01T13:29:17;100189.97;;;28.49;39.26
3748;BME280;1889;50.058;8.688;2022-08-01T13:31:44;100185.98;;;28.63;38.94
3748;BME280;1889;50.058;8.688;2022-08-01T13:34:14;100189.20;;;28.72;38.78
3748;BME280;1889;50.058;8.688;2022-08-01T13:36:43;100186.98;;;28.52;39.09
3748;BME280;1889;50.058;8.688;2022-08-01T13:39:12;100186.88;;;28.38;39.39
3748;BME280;1889;50.058;8.688;2022-08-01T13:41:59;100195.56;;;28.32;38.95
3748;BME280;1889;50.058;8.688;2022-08-01T13:44:28;100191.09;;;28.37;38.82
3748;BME280;1889;50.058;8.688;2022-08-01T13:46:57;100190.62;;;28.57;38.59
3748;BME280;1889;50.058;8.688;2022-08-01T13:49:26;100188.08;;;28.74;38.33
3748;BME280;1889;50.058;8.688;2022-08-01T13:51:55;100189.11;;;28.83;38.42
3748;BME280;1889;50.058;8.688;2022-08-01T13:54:24;100181.98;;;29.01;38.21
3748;BME280;1889;50.058;8.688;2022-08-01T13:56:54;100184.09;;;28.69;38.25